sensor_id;sensor_type;location;lat;lon;timestamp;P1;durP1;ratioP1;P2;durP2;ratioP2
46308;SDS011;32037;50.820;6.494;2023-05-07T00:00:05;1.80;;;1.37;;
46308;SDS011;32037;50.820;6.494;2023-05-07T00:02:35;2.17;;;1.53;;
46308;SDS011;32037;50.820;6.494;2023-05-07T00:05:04;2.40;;;1.60;;
46308;SDS011;32037;50.820;6.494;2023-05-07T00:07:35;3.03;;;1.87;;
46308;SDS011;32037;50.820;6.494;2023-05-07T00:10:04;3.93;;;1.73;;
46308;SDS011;32037;50.820;6.494;2023-05-07T00:12:33;1.87;;;1.37;;
46308;SDS011;32037;50.820;6.494;2023-05-07T00:15:07;2.57;;;1.30;;
46308;SDS011;32037;50.820;6.494;2023-05-07T00:17:37;1.87;;;1.43;;
46308;SDS011;32037;50.820;6.494;2023-05-07T00:20:06;2.27;;;1.83;;
46308;SDS011;32037;50.820;6.494;2023-05-07T00:22:36;2.20;;;1.60;;
46308;SDS011;32037;50.820;6.494;2023-05-07T00:25:05;2.10;;;1.50;;
46308;SDS011;32037;50.820;6.494;2023-05-07T00:27:33;1.87;;;1.40;;
46308;SDS011;32037;50.820;6.494;2023-05-07T00:30:02;1.97;;;1.63;;
46308;SDS011;32037;50.820;6.494;2023-05-07T00:32:32;1.53;;;1.17;;
46308;SDS011;32037;50.820;6.494;2023-05-07T00:35:01;1.67;;;1.33;;
46308;SDS011;32037;50.820;6.494;2023-05-07T00:37:29;2.20;;;1.33;;
46308;SDS011;32037;50.820;6.494;2023-05-07T00:39:58;2.23;;;1.40;;
46308;SDS011;32037;50.820;6.494;2023-05-07T00:42:27;1.90;;;1.30;;
46308;SDS011;32037;50.820;6.494;2023-05-07T00:44:55;1.57;;;1.40;;
46308;SDS011;32037;50.820;6.494;2023-05-07T00:47:24;2.07;;;1.30;;
46308;SDS011;32037;50.820;6.494;2023-05-07T00:49:54;1.73;;;1.60;;
46308;SDS011;32037;50.820;6.494;2023-05-07T00:52:25;1.93;;;1.57;;
46308;SDS011;32037;50.820;6.494;2023-05-07T00:54:54;1.97;;;1.50;;
46308;SDS011;32037;50.820;6.494;2023-05-07T00:57:23;1.40;;;1.10;;
46308;SDS011;32037;50.820;6.494;2023-05-07T00:59:52;2.50;;;0.93;;
46308;SDS011;32037;50.820;6.494;2023-05-07T01:02:24;2.10;;;1.30;;
46308;SDS011;32037;50.820;6.494;2023-05-07T01:04:54;3.43;;;1.50;;
46308;SDS011;32037;50.820;6.494;2023-05-07T01:07:23;2.73;;;1.87;;
46308;SDS011;32037;50.820;6.494;2023-05-07T01:09:52;2.77;;;1.80;;
46308;SDS011;32037;50.820;6.494;2023-05-07T01:12:21;1.43;;;1.13;;
46308;SDS011;32037;50.820;6.494;2023-05-07T01:14:50;2.40;;;1.40;;
46308;SDS011;32037;50.820;6.494;2023-05-07T01:17:19;2.80;;;1.60;;
46308;SDS011;32037;50.820;6.494;2023-05-07T01:19:48;2.17;;;1.57;;
46308;SDS011;32037;50.820;6.494;2023-05-07T01:22:25;2.40;;;1.90;;
46308;SDS011;32037;50.820;6.494;2023-05-07T01:24:58;2.10;;;1.50;;
46308;SDS011;32037;50.820;6.494;2023-05-07T01:27:29;2.63;;;1.50;;
46308;SDS011;32037;50.820;6.494;2023-05-07T01:30:00;3.20;;;1.70;;
46308;SDS011;32037;50.820;6.494;2023-05-07T01:32:31;1.47;;;1.33;;
46308;SDS011;32037;50.820;6.494;2023-05-07T01:35:03;2.13;;;1.77;;
46308;SDS011;32037;50.820;6.494;2023-05-07T01:37:37;1.67;;;1.57;;
46308;SDS011;32037;50.820;6.494;2023-05-07T01:40:06;4.23;;;1.80;;
46308;SDS011;32037;50.820;6.494;2023-05-07T01:42:36;4.00;;;1.40;;
46308;SDS011;32037;50.820;6.494;2023-05-07T01:45:06;1.97;;;1.40;;
46308;SDS011;32037;50.820;6.494;2023-05-07T01:47:35;3.73;;;1.50;;
46308;SDS011;32037;50.820;6.494;2023-05-07T01:50:05;2.20;;;1.60;;
46308;SDS011;32037;50.820;6.494;2023-05-07T01:52:38;2.00;;;1.33;;
46308;SDS011;32037;50.820;6.494;2023-05-07T01:55:07;1.73;;;1.37;;
46308;SDS011;32037;50.820;6.494;2023-05-07T01:57:36;2.27;;;1.67;;
46308;SDS011;32037;50.820;6.494;2023-05-07T02:00:05;3.43;;;1.20;;
46308;SDS011;32037;50.820;6.494;2023-05-07T02:02:43;1.47;;;1.20;;
46308;SDS011;32037;50.820;6.494;2023-05-07T02:05:32;1.80;;;1.40;;
46308;SDS011;32037;50.820;6.494;2023-05-07T02:08:08;1.80;;;1.53;;
46308;SDS011;32037;50.820;6.494;2023-05-07T02:10:37;2.33;;;1.60;;
46308;SDS011;32037;50.820;6.494;2023-05-07T02:13:06;1.50;;;1.20;;
46308;SDS011;32037;50.820;6.494;2023-05-07T02:15:34;2.13;;;1.63;;
46308;SDS011;32037;50.820;6.494;2023-05-07T02:18:04;2.13;;;1.37;;
46308;SDS011;32037;50.820;6.494;2023-05-07T02:20:33;2.27;;;1.57;;
46308;SDS011;32037;50.820;6.494;2023-05-07T02:23:02;2.60;;;1.60;;
46308;SDS011;32037;50.820;6.494;2023-05-07T02:25:32;1.80;;;1.37;;
46308;SDS011;32037;50.820;6.494;2023-05-07T02:28:01;1.50;;;1.20;;
46308;SDS011;32037;50.820;6.494;2023-05-07T02:30:49;2.00;;;1.73;;
46308;SDS011;32037;50.820;6.494;2023-05-07T02:33:19;2.30;;;1.53;;
46308;SDS011;32037;50.820;6.494;2023-05-07T02:35:47;2.33;;;1.20;;
46308;SDS011;32037;50.820;6.494;2023-05-07T02:38:18;2.03;;;1.33;;
46308;SDS011;32037;50.820;6.494;2023-05-07T02:40:48;1.80;;;1.37;;
46308;SDS011;32037;50.820;6.494;2023-05-07T02:43:16;2.00;;;1.43;;
46308;SDS011;32037;50.820;6.494;2023-05-07T02:45:47;5.17;;;1.57;;
46308;SDS011;32037;50.820;6.494;2023-05-07T02:48:16;2.70;;;1.40;;
46308;SDS011;32037;50.820;6.494;2023-05-07T02:50:44;1.80;;;1.37;;
46308;SDS011;32037;50.820;6.494;2023-05-07T02:53:14;2.50;;;1.80;;
46308;SDS011;32037;50.820;6.494;2023-05-07T02:55:42;2.53;;;1.60;;
46308;SDS011;32037;50.820;6.494;2023-05-07T02:58:12;1.70;;;1.30;;
46308;SDS011;32037;50.820;6.494;2023-05-07T03:00:41;2.80;;;1.63;;
46308;SDS011;32037;50.820;6.494;2023-05-07T03:03:20;2.60;;;1.50;;
46308;SDS011;32037;50.820;6.494;2023-05-07T03:05:49;1.90;;;1.33;;
46308;SDS011;32037;50.820;6.494;2023-05-07T03:08:17;2.10;;;1.90;;
46308;SDS011;32037;50.820;6.494;2023-05-07T03:10:46;1.80;;;1.70;;
46308;SDS011;32037;50.820;6.494;2023-05-07T03:13:16;2.60;;;1.90;;
46308;SDS011;32037;50.820;6.494;2023-05-07T03:15:44;1.70;;;1.47;;
46308;SDS011;32037;50.820;6.494;2023-05-07T03:18:13;2.30;;;1.50;;
46308;SDS011;32037;50.820;6.494;2023-05-07T03:20:42;1.70;;;1.27;;
46308;SDS011;32037;50.820;6.494;2023-05-07T03:23:10;2.23;;;1.67;;
46308;SDS011;32037;50.820;6.494;2023-05-07T03:25:39;1.93;;;1.77;;
46308;SDS011;32037;50.820;6.494;2023-05-07T03:28:07;1.70;;;1.30;;
46308;SDS011;32037;50.820;6.494;2023-05-07T03:30:43;2.80;;;1.70;;
46308;SDS011;32037;50.820;6.494;2023-05-07T03:33:12;2.27;;;1.33;;
46308;SDS011;32037;50.820;6.494;2023-05-07T03:35:40;2.20;;;1.37;;
46308;SDS011;32037;50.820;6.494;2023-05-07T03:38:09;2.33;;;1.47;;
46308;SDS011;32037;50.820;6.494;2023-05-07T03:40:39;2.00;;;1.67;;
46308;SDS011;32037;50.820;6.494;2023-05-07T03:43:10;1.83;;;1.10;;
46308;SDS011;32037;50.820;6.494;2023-05-07T03:45:45;1.70;;;1.17;;
46308;SDS011;32037;50.820;6.494;2023-05-07T03:48:24;1.57;;;1.33;;
46308;SDS011;32037;50.820;6.494;2023-05-07T03:50:55;2.53;;;1.50;;
46308;SDS011;32037;50.820;6.494;2023-05-07T03:53:28;1.93;;;1.50;;
46308;SDS011;32037;50.820;6.494;2023-05-07T03:55:57;1.63;;;1.37;;
46308;SDS011;32037;50.820;6.494;2023-05-07T03:58:26;2.30;;;1.40;;
46308;SDS011;32037;50.820;6.494;2023-05-07T04:00:59;1.57;;;1.43;;
46308;SDS011;32037;50.820;6.494;2023-05-07T04:03:28;1.93;;;1.50;;
46308;SDS011;32037;50.820;6.494;2023-05-07T04:05:59;2.00;;;1.80;;
46308;SDS011;32037;50.820;6.494;2023-05-07T04:08:27;1.97;;;1.50;;
46308;SDS011;32037;50.820;6.494;2023-05-07T04:10:55;2.73;;;1.70;;
46308;SDS011;32037;50.820;6.494;2023-05-07T04:13:28;1.63;;;1.53;;
46308;SDS011;32037;50.820;6.494;2023-05-07T04:16:01;2.20;;;1.50;;
46308;SDS011;32037;50.820;6.494;2023-05-07T04:18:31;3.63;;;1.60;;
46308;SDS011;32037;50.820;6.494;2023-05-07T04:20:59;2.23;;;1.40;;
46308;SDS011;32037;50.820;6.494;2023-05-07T04:23:27;1.80;;;1.37;;
46308;SDS011;32037;50.820;6.494;2023-05-07T04:25:59;1.43;;;1.27;;
46308;SDS011;32037;50.820;6.494;2023-05-07T04:28:36;3.20;;;1.83;;
46308;SDS011;32037;50.820;6.494;2023-05-07T04:31:07;1.70;;;1.40;;
46308;SDS011;32037;50.820;6.494;2023-05-07T04:33:37;1.77;;;1.40;;
46308;SDS011;32037;50.820;6.494;2023-05-07T04:36:08;1.60;;;1.30;;
46308;SDS011;32037;50.820;6.494;2023-05-07T04:38:44;1.60;;;1.50;;
46308;SDS011;32037;50.820;6.494;2023-05-07T04:41:14;1.63;;;1.07;;
46308;SDS011;32037;50.820;6.494;2023-05-07T04:43:43;1.70;;;1.30;;
46308;SDS011;32037;50.820;6.494;2023-05-07T04:46:15;1.83;;;1.23;;
46308;SDS011;32037;50.820;6.494;2023-05-07T04:48:44;1.47;;;1.17;;
46308;SDS011;32037;50.820;6.494;2023-05-07T04:51:13;2.00;;;1.60;;
46308;SDS011;32037;50.820;6.494;2023-05-07T04:53:41;1.43;;;1.20;;
46308;SDS011;32037;50.820;6.494;2023-05-07T04:56:10;2.10;;;1.13;;
46308;SDS011;32037;50.820;6.494;2023-05-07T04:58:41;2.50;;;1.20;;
46308;SDS011;32037;50.820;6.494;2023-05-07T05:01:10;1.50;;;1.20;;
46308;SDS011;32037;50.820;6.494;2023-05-07T05:03:41;1.60;;;1.10;;
46308;SDS011;32037;50.820;6.494;2023-05-07T05:06:10;2.60;;;1.50;;
46308;SDS011;32037;50.820;6.494;2023-05-07T05:08:38;1.57;;;1.30;;
46308;SDS011;32037;50.820;6.494;2023-05-07T05:11:08;1.60;;;1.30;;
46308;SDS011;32037;50.820;6.494;2023-05-07T05:13:37;1.80;;;1.37;;
46308;SDS011;32037;50.820;6.494;2023-05-07T05:16:16;1.50;;;1.40;;
46308;SDS011;32037;50.820;6.494;2023-05-07T05:18:46;1.80;;;1.53;;
46308;SDS011;32037;50.820;6.494;2023-05-07T05:21:17;3.27;;;1.27;;
46308;SDS011;32037;50.820;6.494;2023-05-07T05:23:49;1.80;;;1.53;;
46308;SDS011;32037;50.820;6.494;2023-05-07T05:26:20;1.60;;;1.30;;
46308;SDS011;32037;50.820;6.494;2023-05-07T05:28:49;1.43;;;1.07;;
46308;SDS011;32037;50.820;6.494;2023-05-07T05:31:20;2.70;;;1.77;;
46308;SDS011;32037;50.820;6.494;2023-05-07T05:33:51;2.63;;;1.67;;
46308;SDS011;32037;50.820;6.494;2023-05-07T05:36:20;2.07;;;1.87;;
46308;SDS011;32037;50.820;6.494;2023-05-07T05:38:50;2.17;;;1.50;;
46308;SDS011;32037;50.820;6.494;2023-05-07T05:41:21;1.60;;;1.40;;
46308;SDS011;32037;50.820;6.494;2023-05-07T05:43:49;2.43;;;1.40;;
46308;SDS011;32037;50.820;6.494;2023-05-07T05:46:18;1.50;;;1.30;;
46308;SDS011;32037;50.820;6.494;2023-05-07T05:48:49;2.80;;;1.20;;
46308;SDS011;32037;50.820;6.494;2023-05-07T05:51:20;1.70;;;1.40;;
46308;SDS011;32037;50.820;6.494;2023-05-07T05:53:49;1.87;;;1.33;;
46308;SDS011;32037;50.820;6.494;2023-05-07T05:56:18;1.70;;;1.40;;
46308;SDS011;32037;50.820;6.494;2023-05-07T05:58:47;1.23;;;0.97;;
46308;SDS011;32037;50.820;6.494;2023-05-07T06:01:16;2.03;;;1.80;;
46308;SDS011;32037;50.820;6.494;2023-05-07T06:03:48;1.90;;;1.33;;
46308;SDS011;32037;50.820;6.494;2023-05-07T06:06:18;1.80;;;1.60;;
46308;SDS011;32037;50.820;6.494;2023-05-07T06:08:47;1.97;;;1.50;;
46308;SDS011;32037;50.820;6.494;2023-05-07T06:11:20;2.00;;;1.50;;
46308;SDS011;32037;50.820;6.494;2023-05-07T06:13:49;1.73;;;1.50;;
46308;SDS011;32037;50.820;6.494;2023-05-07T06:16:17;1.90;;;1.47;;
46308;SDS011;32037;50.820;6.494;2023-05-07T06:18:47;1.80;;;1.30;;
46308;SDS011;32037;50.820;6.494;2023-05-07T06:21:15;2.03;;;1.80;;
46308;SDS011;32037;50.820;6.494;2023-05-07T06:23:45;2.17;;;1.40;;
46308;SDS011;32037;50.820;6.494;2023-05-07T06:26:14;1.73;;;1.57;;
46308;SDS011;32037;50.820;6.494;2023-05-07T06:28:45;2.30;;;1.40;;
46308;SDS011;32037;50.820;6.494;2023-05-07T06:31:16;2.13;;;1.93;;
46308;SDS011;32037;50.820;6.494;2023-05-07T06:34:00;1.97;;;1.50;;
46308;SDS011;32037;50.820;6.494;2023-05-07T06:36:35;1.47;;;1.10;;
46308;SDS011;32037;50.820;6.494;2023-05-07T06:39:15;1.70;;;1.60;;
46308;SDS011;32037;50.820;6.494;2023-05-07T06:41:43;1.87;;;1.27;;
46308;SDS011;32037;50.820;6.494;2023-05-07T06:44:22;1.30;;;1.20;;
46308;SDS011;32037;50.820;6.494;2023-05-07T06:47:19;2.50;;;1.63;;
46308;SDS011;32037;50.820;6.494;2023-05-07T06:49:51;1.50;;;1.30;;
46308;SDS011;32037;50.820;6.494;2023-05-07T06:52:23;2.17;;;1.57;;
46308;SDS011;32037;50.820;6.494;2023-05-07T06:54:54;1.70;;;1.20;;
46308;SDS011;32037;50.820;6.494;2023-05-07T06:57:24;1.67;;;1.00;;
46308;SDS011;32037;50.820;6.494;2023-05-07T06:59:52;1.70;;;1.33;;
46308;SDS011;32037;50.820;6.494;2023-05-07T07:02:21;1.63;;;1.23;;
46308;SDS011;32037;50.820;6.494;2023-05-07T07:04:50;1.73;;;1.20;;
46308;SDS011;32037;50.820;6.494;2023-05-07T07:07:19;1.40;;;1.10;;
46308;SDS011;32037;50.820;6.494;2023-05-07T07:09:50;1.60;;;1.20;;
46308;SDS011;32037;50.820;6.494;2023-05-07T07:12:20;1.50;;;1.27;;
46308;SDS011;32037;50.820;6.494;2023-05-07T07:14:49;1.87;;;0.83;;
46308;SDS011;32037;50.820;6.494;2023-05-07T07:17:18;1.63;;;1.27;;
46308;SDS011;32037;50.820;6.494;2023-05-07T07:19:46;2.53;;;1.10;;
46308;SDS011;32037;50.820;6.494;2023-05-07T07:22:14;1.50;;;1.10;;
46308;SDS011;32037;50.820;6.494;2023-05-07T07:24:44;2.17;;;1.30;;
46308;SDS011;32037;50.820;6.494;2023-05-07T07:27:15;1.63;;;1.10;;
46308;SDS011;32037;50.820;6.494;2023-05-07T07:29:45;2.00;;;1.40;;
46308;SDS011;32037;50.820;6.494;2023-05-07T07:32:13;1.60;;;1.20;;
46308;SDS011;32037;50.820;6.494;2023-05-07T07:34:42;1.30;;;1.00;;
46308;SDS011;32037;50.820;6.494;2023-05-07T07:37:11;1.80;;;1.27;;
46308;SDS011;32037;50.820;6.494;2023-05-07T07:39:40;1.80;;;1.23;;
46308;SDS011;32037;50.820;6.494;2023-05-07T07:42:10;1.67;;;0.90;;
46308;SDS011;32037;50.820;6.494;2023-05-07T07:44:38;1.40;;;1.10;;
46308;SDS011;32037;50.820;6.494;2023-05-07T07:47:10;1.20;;;0.90;;
46308;SDS011;32037;50.820;6.494;2023-05-07T07:49:40;2.23;;;1.40;;
46308;SDS011;32037;50.820;6.494;2023-05-07T07:52:09;1.40;;;1.00;;
46308;SDS011;32037;50.820;6.494;2023-05-07T07:54:39;1.67;;;1.13;;
46308;SDS011;32037;50.820;6.494;2023-05-07T07:57:07;1.57;;;1.10;;
46308;SDS011;32037;50.820;6.494;2023-05-07T07:59:36;1.30;;;0.90;;
46308;SDS011;32037;50.820;6.494;2023-05-07T08:02:06;1.93;;;0.90;;
46308;SDS011;32037;50.820;6.494;2023-05-07T08:04:36;1.33;;;0.87;;
46308;SDS011;32037;50.820;6.494;2023-05-07T08:07:06;1.30;;;1.20;;
46308;SDS011;32037;50.820;6.494;2023-05-07T08:09:39;2.20;;;1.33;;
46308;SDS011;32037;50.820;6.494;2023-05-07T08:12:09;2.17;;;1.30;;
46308;SDS011;32037;50.820;6.494;2023-05-07T08:14:38;1.80;;;1.10;;
46308;SDS011;32037;50.820;6.494;2023-05-07T08:17:07;1.40;;;0.90;;
46308;SDS011;32037;50.820;6.494;2023-05-07T08:19:38;2.20;;;1.50;;
46308;SDS011;32037;50.820;6.494;2023-05-07T08:22:10;1.20;;;1.10;;
46308;SDS011;32037;50.820;6.494;2023-05-07T08:24:39;1.40;;;1.10;;
46308;SDS011;32037;50.820;6.494;2023-05-07T08:27:08;2.07;;;1.07;;
46308;SDS011;32037;50.820;6.494;2023-05-07T08:29:38;1.30;;;0.87;;
46308;SDS011;32037;50.820;6.494;2023-05-07T08:32:07;1.63;;;1.17;;
46308;SDS011;32037;50.820;6.494;2023-05-07T08:34:36;1.80;;;1.20;;
46308;SDS011;32037;50.820;6.494;2023-05-07T08:37:06;1.43;;;0.93;;
46308;SDS011;32037;50.820;6.494;2023-05-07T08:39:36;6.43;;;2.00;;
46308;SDS011;32037;50.820;6.494;2023-05-07T08:42:12;3.17;;;1.47;;
46308;SDS011;32037;50.820;6.494;2023-05-07T08:44:42;2.43;;;1.17;;
46308;SDS011;32037;50.820;6.494;2023-05-07T08:47:16;2.00;;;1.20;;
46308;SDS011;32037;50.820;6.494;2023-05-07T08:49:49;1.70;;;1.30;;
46308;SDS011;32037;50.820;6.494;2023-05-07T08:52:21;1.57;;;1.13;;
46308;SDS011;32037;50.820;6.494;2023-05-07T08:54:50;1.60;;;1.50;;
46308;SDS011;32037;50.820;6.494;2023-05-07T08:57:19;2.17;;;1.03;;
46308;SDS011;32037;50.820;6.494;2023-05-07T08:59:49;1.40;;;1.20;;
46308;SDS011;32037;50.820;6.494;2023-05-07T09:02:18;1.40;;;1.20;;
46308;SDS011;32037;50.820;6.494;2023-05-07T09:04:46;1.77;;;1.57;;
46308;SDS011;32037;50.820;6.494;2023-05-07T09:07:15;2.30;;;1.73;;
46308;SDS011;32037;50.820;6.494;2023-05-07T09:09:46;3.67;;;3.37;;
46308;SDS011;32037;50.820;6.494;2023-05-07T09:12:15;4.10;;;3.17;;
46308;SDS011;32037;50.820;6.494;2023-05-07T09:14:44;3.80;;;2.77;;
46308;SDS011;32037;50.820;6.494;2023-05-07T09:17:13;7.53;;;2.90;;
46308;SDS011;32037;50.820;6.494;2023-05-07T09:19:43;2.87;;;2.30;;
46308;SDS011;32037;50.820;6.494;2023-05-07T09:22:14;6.43;;;3.50;;
46308;SDS011;32037;50.820;6.494;2023-05-07T09:24:53;2.17;;;1.97;;
46308;SDS011;32037;50.820;6.494;2023-05-07T09:27:25;2.63;;;2.30;;
46308;SDS011;32037;50.820;6.494;2023-05-07T09:29:55;2.67;;;2.27;;
46308;SDS011;32037;50.820;6.494;2023-05-07T09:32:24;2.53;;;2.07;;
46308;SDS011;32037;50.820;6.494;2023-05-07T09:34:54;6.23;;;3.03;;
46308;SDS011;32037;50.820;6.494;2023-05-07T09:37:25;4.33;;;1.90;;
46308;SDS011;32037;50.820;6.494;2023-05-07T09:39:55;3.43;;;2.10;;
46308;SDS011;32037;50.820;6.494;2023-05-07T09:42:25;2.90;;;1.93;;
46308;SDS011;32037;50.820;6.494;2023-05-07T09:44:59;4.53;;;1.90;;
46308;SDS011;32037;50.820;6.494;2023-05-07T09:47:34;2.37;;;1.90;;
46308;SDS011;32037;50.820;6.494;2023-05-07T09:50:07;1.60;;;1.50;;
46308;SDS011;32037;50.820;6.494;2023-05-07T09:52:39;2.33;;;2.13;;
46308;SDS011;32037;50.820;6.494;2023-05-07T09:55:11;2.37;;;2.17;;
46308;SDS011;32037;50.820;6.494;2023-05-07T09:57:41;2.63;;;1.87;;
46308;SDS011;32037;50.820;6.494;2023-05-07T10:00:12;1.60;;;1.50;;
46308;SDS011;32037;50.820;6.494;2023-05-07T10:02:48;2.00;;;1.60;;
46308;SDS011;32037;50.820;6.494;2023-05-07T10:05:25;2.33;;;1.70;;
46308;SDS011;32037;50.820;6.494;2023-05-07T10:07:57;3.70;;;1.60;;
46308;SDS011;32037;50.820;6.494;2023-05-07T10:10:32;3.00;;;1.80;;
46308;SDS011;32037;50.820;6.494;2023-05-07T10:13:03;2.00;;;1.80;;
46308;SDS011;32037;50.820;6.494;2023-05-07T10:15:40;1.97;;;1.60;;
46308;SDS011;32037;50.820;6.494;2023-05-07T10:18:10;5.20;;;1.93;;
46308;SDS011;32037;50.820;6.494;2023-05-07T10:20:42;2.30;;;2.10;;
46308;SDS011;32037;50.820;6.494;2023-05-07T10:23:12;3.23;;;1.80;;
46308;SDS011;32037;50.820;6.494;2023-05-07T10:25:48;2.00;;;1.73;;
46308;SDS011;32037;50.820;6.494;2023-05-07T10:28:25;2.10;;;1.90;;
46308;SDS011;32037;50.820;6.494;2023-05-07T10:30:58;1.80;;;1.60;;
46308;SDS011;32037;50.820;6.494;2023-05-07T10:33:39;1.90;;;1.40;;
46308;SDS011;32037;50.820;6.494;2023-05-07T10:36:09;2.00;;;1.80;;
46308;SDS011;32037;50.820;6.494;2023-05-07T10:38:39;2.70;;;1.57;;
46308;SDS011;32037;50.820;6.494;2023-05-07T10:41:10;2.20;;;1.60;;
46308;SDS011;32037;50.820;6.494;2023-05-07T10:43:42;2.27;;;2.00;;
46308;SDS011;32037;50.820;6.494;2023-05-07T10:46:23;1.40;;;1.20;;
46308;SDS011;32037;50.820;6.494;2023-05-07T10:49:10;2.50;;;1.40;;
46308;SDS011;32037;50.820;6.494;2023-05-07T10:58:25;3.03;;;1.30;;
46308;SDS011;32037;50.820;6.494;2023-05-07T11:04:34;2.30;;;1.80;;
46308;SDS011;32037;50.820;6.494;2023-05-07T11:07:24;2.80;;;2.20;;
46308;SDS011;32037;50.820;6.494;2023-05-07T11:10:12;2.30;;;2.10;;
46308;SDS011;32037;50.820;6.494;2023-05-07T11:12:57;2.27;;;1.87;;
46308;SDS011;32037;50.820;6.494;2023-05-07T11:15:45;2.37;;;2.17;;
46308;SDS011;32037;50.820;6.494;2023-05-07T11:18:42;2.87;;;1.83;;
46308;SDS011;32037;50.820;6.494;2023-05-07T11:21:32;2.03;;;1.47;;
46308;SDS011;32037;50.820;6.494;2023-05-07T11:24:18;2.23;;;1.60;;
46308;SDS011;32037;50.820;6.494;2023-05-07T11:26:53;2.43;;;1.70;;
46308;SDS011;32037;50.820;6.494;2023-05-07T11:29:24;2.53;;;1.83;;
46308;SDS011;32037;50.820;6.494;2023-05-07T11:32:00;2.10;;;1.70;;
46308;SDS011;32037;50.820;6.494;2023-05-07T11:34:35;3.07;;;1.80;;
46308;SDS011;32037;50.820;6.494;2023-05-07T11:37:04;1.70;;;1.60;;
46308;SDS011;32037;50.820;6.494;2023-05-07T11:39:49;2.20;;;1.27;;
46308;SDS011;32037;50.820;6.494;2023-05-07T11:42:30;2.53;;;1.73;;
46308;SDS011;32037;50.820;6.494;2023-05-07T11:45:00;2.53;;;2.00;;
46308;SDS011;32037;50.820;6.494;2023-05-07T11:47:30;1.90;;;1.20;;
46308;SDS011;32037;50.820;6.494;2023-05-07T11:50:02;2.00;;;1.60;;
46308;SDS011;32037;50.820;6.494;2023-05-07T11:52:34;1.90;;;1.33;;
46308;SDS011;32037;50.820;6.494;2023-05-07T11:55:06;2.23;;;1.70;;
46308;SDS011;32037;50.820;6.494;2023-05-07T11:57:36;2.07;;;1.53;;
46308;SDS011;32037;50.820;6.494;2023-05-07T12:00:05;2.30;;;1.63;;
46308;SDS011;32037;50.820;6.494;2023-05-07T12:02:43;2.60;;;1.70;;
46308;SDS011;32037;50.820;6.494;2023-05-07T12:05:16;1.70;;;1.33;;
46308;SDS011;32037;50.820;6.494;2023-05-07T12:07:45;1.63;;;1.53;;
46308;SDS011;32037;50.820;6.494;2023-05-07T12:10:14;1.70;;;1.60;;
46308;SDS011;32037;50.820;6.494;2023-05-07T12:12:45;4.27;;;1.97;;
46308;SDS011;32037;50.820;6.494;2023-05-07T12:15:15;2.03;;;1.83;;
46308;SDS011;32037;50.820;6.494;2023-05-07T12:17:45;1.90;;;1.63;;
46308;SDS011;32037;50.820;6.494;2023-05-07T12:20:16;1.90;;;1.80;;
46308;SDS011;32037;50.820;6.494;2023-05-07T12:22:46;1.77;;;1.53;;
46308;SDS011;32037;50.820;6.494;2023-05-07T12:25:19;3.07;;;1.83;;
46308;SDS011;32037;50.820;6.494;2023-05-07T12:27:51;1.70;;;1.43;;
46308;SDS011;32037;50.820;6.494;2023-05-07T12:30:20;1.73;;;1.53;;
46308;SDS011;32037;50.820;6.494;2023-05-07T12:32:51;2.23;;;1.40;;
46308;SDS011;32037;50.820;6.494;2023-05-07T12:35:26;1.60;;;1.47;;
46308;SDS011;32037;50.820;6.494;2023-05-07T12:37:55;3.20;;;1.60;;
46308;SDS011;32037;50.820;6.494;2023-05-07T12:40:34;2.13;;;1.80;;
46308;SDS011;32037;50.820;6.494;2023-05-07T12:43:04;2.07;;;1.30;;
46308;SDS011;32037;50.820;6.494;2023-05-07T12:45:36;2.20;;;1.37;;
46308;SDS011;32037;50.820;6.494;2023-05-07T12:48:07;3.67;;;1.70;;
46308;SDS011;32037;50.820;6.494;2023-05-07T12:50:38;1.67;;;1.30;;
46308;SDS011;32037;50.820;6.494;2023-05-07T12:53:07;1.57;;;1.47;;
46308;SDS011;32037;50.820;6.494;2023-05-07T12:55:41;1.90;;;1.10;;
46308;SDS011;32037;50.820;6.494;2023-05-07T12:58:16;3.00;;;1.60;;
46308;SDS011;32037;50.820;6.494;2023-05-07T13:00:47;1.80;;;1.70;;
46308;SDS011;32037;50.820;6.494;2023-05-07T13:03:24;2.33;;;1.67;;
46308;SDS011;32037;50.820;6.494;2023-05-07T13:05:55;2.17;;;1.80;;
46308;SDS011;32037;50.820;6.494;2023-05-07T13:08:26;1.60;;;1.40;;
46308;SDS011;32037;50.820;6.494;2023-05-07T13:10:56;1.57;;;1.30;;
46308;SDS011;32037;50.820;6.494;2023-05-07T13:13:25;1.53;;;1.43;;
46308;SDS011;32037;50.820;6.494;2023-05-07T13:15:57;2.03;;;1.53;;
46308;SDS011;32037;50.820;6.494;2023-05-07T13:18:29;2.00;;;1.37;;
46308;SDS011;32037;50.820;6.494;2023-05-07T13:20:59;1.53;;;1.40;;
46308;SDS011;32037;50.820;6.494;2023-05-07T13:23:28;1.57;;;1.30;;
46308;SDS011;32037;50.820;6.494;2023-05-07T13:25:57;2.73;;;1.40;;
46308;SDS011;32037;50.820;6.494;2023-05-07T13:28:29;1.50;;;1.20;;
46308;SDS011;32037;50.820;6.494;2023-05-07T13:30:58;1.53;;;1.13;;
46308;SDS011;32037;50.820;6.494;2023-05-07T13:33:26;1.33;;;1.10;;
46308;SDS011;32037;50.820;6.494;2023-05-07T13:35:56;1.63;;;1.50;;
46308;SDS011;32037;50.820;6.494;2023-05-07T13:38:24;2.13;;;1.13;;
46308;SDS011;32037;50.820;6.494;2023-05-07T13:40:52;1.50;;;1.10;;
46308;SDS011;32037;50.820;6.494;2023-05-07T13:43:21;1.40;;;1.30;;
46308;SDS011;32037;50.820;6.494;2023-05-07T13:45:49;1.70;;;1.17;;
46308;SDS011;32037;50.820;6.494;2023-05-07T13:48:18;2.40;;;1.50;;
46308;SDS011;32037;50.820;6.494;2023-05-07T13:50:47;1.90;;;1.67;;
46308;SDS011;32037;50.820;6.494;2023-05-07T13:53:16;1.43;;;1.20;;
46308;SDS011;32037;50.820;6.494;2023-05-07T13:55:45;1.30;;;1.20;;
46308;SDS011;32037;50.820;6.494;2023-05-07T13:58:13;1.97;;;1.63;;
46308;SDS011;32037;50.820;6.494;2023-05-07T14:00:42;1.97;;;1.40;;
46308;SDS011;32037;50.820;6.494;2023-05-07T14:03:10;1.70;;;1.33;;
46308;SDS011;32037;50.820;6.494;2023-05-07T14:05:38;1.53;;;1.20;;
46308;SDS011;32037;50.820;6.494;2023-05-07T14:08:08;1.20;;;1.03;;
46308;SDS011;32037;50.820;6.494;2023-05-07T14:10:37;2.43;;;1.23;;
46308;SDS011;32037;50.820;6.494;2023-05-07T14:13:05;3.13;;;1.20;;
46308;SDS011;32037;50.820;6.494;2023-05-07T14:15:34;1.60;;;1.37;;
46308;SDS011;32037;50.820;6.494;2023-05-07T14:18:03;1.90;;;1.60;;
46308;SDS011;32037;50.820;6.494;2023-05-07T14:20:31;1.90;;;1.33;;
46308;SDS011;32037;50.820;6.494;2023-05-07T14:23:04;1.33;;;1.13;;
46308;SDS011;32037;50.820;6.494;2023-05-07T14:25:34;2.40;;;1.20;;
46308;SDS011;32037;50.820;6.494;2023-05-07T14:28:02;1.50;;;1.40;;
46308;SDS011;32037;50.820;6.494;2023-05-07T14:30:34;1.40;;;1.20;;
46308;SDS011;32037;50.820;6.494;2023-05-07T14:33:02;1.53;;;1.13;;
46308;SDS011;32037;50.820;6.494;2023-05-07T14:35:30;1.37;;;1.23;;
46308;SDS011;32037;50.820;6.494;2023-05-07T14:37:59;1.53;;;1.30;;
46308;SDS011;32037;50.820;6.494;2023-05-07T14:40:27;1.63;;;1.53;;
46308;SDS011;32037;50.820;6.494;2023-05-07T14:42:57;1.70;;;1.60;;
46308;SDS011;32037;50.820;6.494;2023-05-07T14:45:25;2.00;;;1.50;;
46308;SDS011;32037;50.820;6.494;2023-05-07T14:47:53;1.43;;;1.20;;
46308;SDS011;32037;50.820;6.494;2023-05-07T14:50:22;1.30;;;1.13;;
46308;SDS011;32037;50.820;6.494;2023-05-07T14:52:50;1.80;;;1.30;;
46308;SDS011;32037;50.820;6.494;2023-05-07T14:55:18;1.80;;;1.50;;
46308;SDS011;32037;50.820;6.494;2023-05-07T14:57:46;1.63;;;1.20;;
46308;SDS011;32037;50.820;6.494;2023-05-07T15:00:16;1.57;;;1.30;;
46308;SDS011;32037;50.820;6.494;2023-05-07T15:02:45;1.70;;;1.60;;
46308;SDS011;32037;50.820;6.494;2023-05-07T15:05:14;2.07;;;1.60;;
46308;SDS011;32037;50.820;6.494;2023-05-07T15:07:42;1.40;;;1.20;;
46308;SDS011;32037;50.820;6.494;2023-05-07T15:10:11;1.70;;;1.30;;
46308;SDS011;32037;50.820;6.494;2023-05-07T15:12:40;1.47;;;1.10;;
46308;SDS011;32037;50.820;6.494;2023-05-07T15:15:09;1.40;;;1.30;;
46308;SDS011;32037;50.820;6.494;2023-05-07T15:17:39;1.33;;;1.20;;
46308;SDS011;32037;50.820;6.494;2023-05-07T15:20:08;1.50;;;1.23;;